createdAt,value
2017-12-25T00:01:19.476Z,6.23
2017-12-25T00:03:46.946Z,5.83
2017-12-25T00:06:15.234Z,6.07
2017-12-25T00:08:43.464Z,5.90
2017-12-25T00:11:12.845Z,6.30
2017-12-25T00:13:40.310Z,6.10
2017-12-25T00:16:07.783Z,6.53
2017-12-25T00:18:35.250Z,5.97
2017-12-25T00:21:02.717Z,5.87
2017-12-25T00:23:30.189Z,6.10
2017-12-25T00:25:57.661Z,6.30
2017-12-25T00:28:25.133Z,6.07
2017-12-25T00:30:52.593Z,6.30
2017-12-25T00:33:20.062Z,7.00
2017-12-25T00:35:47.545Z,5.93
2017-12-25T00:38:15.765Z,6.47
2017-12-25T00:40:43.238Z,6.67
2017-12-25T00:43:10.694Z,6.70
2017-12-25T00:45:38.145Z,6.13
2017-12-25T00:48:05.603Z,6.30
2017-12-25T00:50:33.081Z,6.10
2017-12-25T00:53:00.538Z,6.40
2017-12-25T00:55:28.024Z,6.60
2017-12-25T00:57:55.558Z,6.67
2017-12-25T01:00:23.020Z,6.93
2017-12-25T01:02:50.470Z,7.20
2017-12-25T01:05:17.945Z,6.30
2017-12-25T01:07:45.408Z,6.17
2017-12-25T01:10:12.891Z,6.37
2017-12-25T01:12:40.372Z,6.90
2017-12-25T01:15:07.848Z,6.70
2017-12-25T01:17:35.314Z,6.60
2017-12-25T01:20:02.792Z,6.27
2017-12-25T01:22:31.022Z,6.43
2017-12-25T01:24:58.495Z,6.70
2017-12-25T01:27:25.948Z,6.70
2017-12-25T01:29:53.413Z,6.70
2017-12-25T01:32:20.877Z,6.20
2017-12-25T01:34:48.366Z,6.63
2017-12-25T01:37:15.831Z,6.60
2017-12-25T01:39:43.303Z,7.07
2017-12-25T01:42:11.537Z,6.83
2017-12-25T01:44:39.001Z,7.17
2017-12-25T01:47:06.471Z,6.97
2017-12-25T01:49:33.927Z,6.97
2017-12-25T01:52:01.404Z,6.57
2017-12-25T01:54:44.670Z,7.40
2017-12-25T02:00:24.594Z,7.40
2017-12-25T02:02:53.822Z,6.97
2017-12-25T02:05:41.776Z,7.07
2017-12-25T02:08:18.970Z,6.90
2017-12-25T02:10:46.444Z,7.40
2017-12-25T02:13:13.900Z,7.33
2017-12-25T02:15:41.385Z,7.00
2017-12-25T02:18:08.853Z,7.13
2017-12-25T02:20:36.331Z,8.10
2017-12-25T02:23:04.644Z,7.90
2017-12-25T02:25:32.150Z,8.60
2017-12-25T02:27:59.617Z,7.80
2017-12-25T02:30:27.071Z,8.00
2017-12-25T02:32:54.556Z,8.73
2017-12-25T02:35:22.021Z,8.23
2017-12-25T02:37:49.494Z,9.07
2017-12-25T02:40:17.721Z,8.33
2017-12-25T02:42:45.192Z,8.07
2017-12-25T02:45:12.654Z,8.60
2017-12-25T02:47:40.120Z,7.83
2017-12-25T02:50:07.594Z,8.30
2017-12-25T02:52:35.074Z,8.63
2017-12-25T02:55:02.537Z,7.70
2017-12-25T02:57:30.042Z,8.47
2017-12-25T02:59:57.513Z,8.53
2017-12-25T03:02:24.977Z,9.30
2017-12-25T03:04:52.431Z,9.07
2017-12-25T03:07:19.908Z,9.23
2017-12-25T03:09:47.377Z,9.73
2017-12-25T03:12:14.841Z,10.23
2017-12-25T03:14:42.339Z,9.50
2017-12-25T03:17:09.801Z,10.23
2017-12-25T03:19:38.028Z,9.20
2017-12-25T03:22:05.503Z,9.43
2017-12-25T03:24:32.970Z,8.97
2017-12-25T03:27:00.440Z,9.77
2017-12-25T03:29:27.919Z,9.63
2017-12-25T03:31:56.163Z,9.53
2017-12-25T03:34:23.636Z,9.27
2017-12-25T03:36:51.125Z,9.43
2017-12-25T03:39:19.368Z,9.80
2017-12-25T03:41:46.829Z,9.40
2017-12-25T03:44:14.297Z,10.07
2017-12-25T03:46:41.791Z,10.03
2017-12-25T03:49:10.037Z,9.63
2017-12-25T03:51:37.522Z,10.07
2017-12-25T03:54:05.009Z,9.93
2017-12-25T03:56:32.475Z,10.10
2017-12-25T03:58:59.943Z,10.20
2017-12-25T04:01:27.425Z,10.13
2017-12-25T04:03:54.890Z,10.37
2017-12-25T04:06:22.383Z,11.20
2017-12-25T04:08:49.854Z,10.00
2017-12-25T04:11:18.115Z,9.93
2017-12-25T04:13:47.614Z,10.40
2017-12-25T04:16:15.079Z,10.30
2017-12-25T04:18:42.557Z,11.37
2017-12-25T04:21:10.032Z,11.00
2017-12-25T04:23:37.518Z,11.40
2017-12-25T04:26:05.768Z,12.03
2017-12-25T04:28:33.264Z,11.03
2017-12-25T04:31:01.497Z,11.43
2017-12-25T04:33:28.965Z,11.77
2017-12-25T04:35:56.440Z,11.10
2017-12-25T04:38:23.916Z,11.70
2017-12-25T04:40:51.387Z,10.83
2017-12-25T04:43:19.631Z,11.13
2017-12-25T04:45:47.090Z,11.40
2017-12-25T04:48:14.580Z,11.00
2017-12-25T04:50:42.042Z,11.93
2017-12-25T04:53:09.515Z,11.07
2017-12-25T04:55:36.976Z,11.90
2017-12-25T04:58:05.216Z,10.90
2017-12-25T05:00:32.694Z,10.87
2017-12-25T05:03:00.185Z,10.93
2017-12-25T05:05:28.446Z,11.00
2017-12-25T05:07:55.938Z,12.10
2017-12-25T05:10:24.186Z,11.27
2017-12-25T05:12:51.650Z,11.50
2017-12-25T05:15:19.136Z,11.60
2017-12-25T05:17:47.378Z,10.73
2017-12-25T05:20:14.904Z,10.97
2017-12-25T05:22:42.367Z,11.13
2017-12-25T05:25:09.852Z,11.03
2017-12-25T05:27:37.317Z,11.53
2017-12-25T05:30:04.797Z,11.30
2017-12-25T05:32:32.290Z,11.40
2017-12-25T05:35:00.531Z,11.97
2017-12-25T05:37:28.019Z,11.40
2017-12-25T05:39:55.480Z,11.43
2017-12-25T05:42:22.957Z,11.40
2017-12-25T05:44:50.436Z,11.67
2017-12-25T05:47:17.902Z,12.87
2017-12-25T05:49:45.394Z,12.40
2017-12-25T05:52:12.873Z,11.23
2017-12-25T05:54:40.339Z,12.07
2017-12-25T05:57:07.803Z,12.77
2017-12-25T05:59:35.329Z,11.47
2017-12-25T06:02:02.797Z,12.50
2017-12-25T06:04:30.291Z,11.70
2017-12-25T06:06:57.776Z,11.60
2017-12-25T06:09:25.249Z,11.23
2017-12-25T06:11:53.494Z,10.93
2017-12-25T06:14:20.973Z,12.00
2017-12-25T06:16:48.470Z,12.10
2017-12-25T06:19:15.935Z,11.00
2017-12-25T06:21:44.166Z,12.23
2017-12-25T06:24:11.643Z,12.80
2017-12-25T06:26:39.126Z,13.70
2017-12-25T06:29:07.360Z,13.60
2017-12-25T06:31:34.841Z,13.90
2017-12-25T06:34:02.286Z,14.13
2017-12-25T06:36:29.775Z,15.23
2017-12-25T06:38:57.246Z,15.00
2017-12-25T06:41:25.495Z,15.53
2017-12-25T06:43:52.964Z,16.40
2017-12-25T06:46:20.449Z,15.70
2017-12-25T06:48:47.924Z,15.30
2017-12-25T06:51:16.161Z,13.77
2017-12-25T06:53:43.647Z,12.87
2017-12-25T06:56:11.123Z,16.70
2017-12-25T06:58:39.360Z,16.67
2017-12-25T07:01:06.839Z,19.17
2017-12-25T07:03:34.304Z,18.87
2017-12-25T07:06:01.792Z,19.33
2017-12-25T07:08:30.022Z,19.10
2017-12-25T07:10:57.494Z,17.73
2017-12-25T07:13:24.965Z,17.70
2017-12-25T07:15:52.449Z,17.47
2017-12-25T07:18:19.905Z,16.43
2017-12-25T07:20:47.378Z,17.40
2017-12-25T07:23:14.878Z,15.70
2017-12-25T07:25:42.344Z,15.70
2017-12-25T07:28:09.826Z,16.13
2017-12-25T07:30:37.296Z,15.87
2017-12-25T07:33:04.767Z,15.83
2017-12-25T07:35:32.237Z,16.13
2017-12-25T07:37:59.718Z,15.87
2017-12-25T07:40:27.193Z,16.63
2017-12-25T07:42:55.427Z,16.23
2017-12-25T07:45:22.906Z,17.07
2017-12-25T07:47:50.388Z,15.57
2017-12-25T07:50:21.627Z,15.77
2017-12-25T07:52:49.095Z,16.57
2017-12-25T07:55:16.559Z,16.73
2017-12-25T07:57:44.039Z,17.50
2017-12-25T08:00:12.277Z,17.93
2017-12-25T08:02:39.754Z,17.63
2017-12-25T08:05:07.220Z,18.17
2017-12-25T08:07:34.722Z,18.63
2017-12-25T08:10:02.171Z,19.13
2017-12-25T08:12:30.416Z,19.37
2017-12-25T08:14:57.891Z,18.60
2017-12-25T08:17:25.365Z,18.40
2017-12-25T08:19:53.597Z,17.73
2017-12-25T08:22:21.082Z,18.67
2017-12-25T08:24:53.930Z,19.53
2017-12-25T08:27:21.410Z,19.27
2017-12-25T08:29:48.874Z,18.07
2017-12-25T08:32:19.809Z,18.33
2017-12-25T08:34:47.274Z,18.20
2017-12-25T08:37:14.785Z,17.40
2017-12-25T08:39:43.014Z,18.43
2017-12-25T08:42:10.480Z,18.87
2017-12-25T08:44:37.956Z,18.53
2017-12-25T08:47:05.418Z,17.90
2017-12-25T08:49:32.897Z,17.83
2017-12-25T08:52:02.508Z,17.37
2017-12-25T08:54:30.041Z,17.00
2017-12-25T08:56:57.568Z,18.37
2017-12-25T08:59:25.955Z,19.27
2017-12-25T09:04:44.132Z,18.90
2017-12-25T09:07:12.206Z,17.43
2017-12-25T09:09:46.533Z,17.40
2017-12-25T09:12:14.030Z,18.77
2017-12-25T09:14:41.479Z,19.10
2017-12-25T09:17:08.951Z,19.17
2017-12-25T09:19:36.445Z,18.73
2017-12-25T09:22:04.684Z,18.73
2017-12-25T09:24:32.154Z,19.30
2017-12-25T09:26:59.634Z,18.13
2017-12-25T09:29:27.417Z,18.53
2017-12-25T09:31:57.648Z,19.37
2017-12-25T09:34:25.910Z,18.37
2017-12-25T09:36:53.395Z,18.80
2017-12-25T09:39:21.635Z,18.77
2017-12-25T09:41:49.149Z,18.53
2017-12-25T09:44:16.625Z,18.40
2017-12-25T09:46:46.037Z,17.90
2017-12-25T09:49:13.542Z,18.10
2017-12-25T09:51:41.001Z,18.03
2017-12-25T09:54:08.497Z,18.20
2017-12-25T09:56:35.974Z,17.43
2017-12-25T09:59:03.460Z,18.17
2017-12-25T10:01:30.931Z,16.37
2017-12-25T10:03:58.452Z,15.77
2017-12-25T10:06:26.695Z,14.80
2017-12-25T10:08:54.164Z,14.90
2017-12-25T10:11:21.652Z,14.13
2017-12-25T10:13:49.877Z,15.40
2017-12-25T10:16:17.373Z,16.07
2017-12-25T10:18:44.836Z,16.33
2017-12-25T10:21:12.374Z,15.03
2017-12-25T10:23:39.845Z,20.80
2017-12-25T10:26:07.327Z,16.53
2017-12-25T10:28:34.821Z,17.13
2017-12-25T10:31:02.280Z,16.27
2017-12-25T10:33:29.762Z,16.03
2017-12-25T10:35:57.251Z,17.47
2017-12-25T10:38:24.733Z,18.03
2017-12-25T10:40:52.205Z,15.90
2017-12-25T10:43:19.734Z,16.60
2017-12-25T10:45:47.204Z,17.27
2017-12-25T10:48:14.667Z,18.73
2017-12-25T10:50:42.145Z,14.27
2017-12-25T10:53:09.620Z,15.17
2017-12-25T10:55:37.086Z,16.23
2017-12-25T10:58:04.542Z,13.77
2017-12-25T11:00:37.820Z,14.80
2017-12-25T11:03:06.086Z,13.40
2017-12-25T11:05:33.597Z,13.73
2017-12-25T11:08:01.829Z,12.70
2017-12-25T11:10:29.296Z,13.67
2017-12-25T11:12:56.787Z,13.73
2017-12-25T11:15:24.296Z,14.17
2017-12-25T11:17:51.771Z,13.70
2017-12-25T11:20:19.318Z,14.27
2017-12-25T11:22:46.831Z,14.37
2017-12-25T11:25:14.287Z,13.40
2017-12-25T11:27:41.834Z,14.53
2017-12-25T11:30:09.289Z,14.17
2017-12-25T11:32:36.862Z,14.23
2017-12-25T11:35:04.358Z,13.87
2017-12-25T11:37:31.840Z,13.70
2017-12-25T11:40:00.141Z,13.40
2017-12-25T11:42:27.617Z,13.87
2017-12-25T11:44:55.134Z,14.20
2017-12-25T11:47:23.357Z,13.53
2017-12-25T11:49:50.824Z,14.80
2017-12-25T11:52:18.298Z,13.67
2017-12-25T11:54:45.767Z,14.57
2017-12-25T11:57:13.245Z,15.07
2017-12-25T11:59:40.727Z,14.80
2017-12-25T12:02:08.216Z,14.90
2017-12-25T12:04:35.678Z,15.03
2017-12-25T12:07:03.157Z,14.40
2017-12-25T12:09:30.639Z,15.03
2017-12-25T12:11:58.114Z,15.20
2017-12-25T12:14:25.603Z,15.03
2017-12-25T12:16:53.843Z,14.23
2017-12-25T12:19:21.375Z,14.60
2017-12-25T12:21:48.844Z,14.87
2017-12-25T12:24:16.306Z,13.87
2017-12-25T12:26:43.777Z,15.10
2017-12-25T12:29:11.274Z,15.30
2017-12-25T12:31:38.774Z,15.20
2017-12-25T12:34:07.017Z,15.10
2017-12-25T12:36:34.489Z,14.57
2017-12-25T12:39:01.975Z,15.63
2017-12-25T12:41:30.286Z,15.63
2017-12-25T12:43:57.757Z,15.20
2017-12-25T12:46:25.218Z,15.67
2017-12-25T12:48:52.701Z,15.40
2017-12-25T12:51:20.165Z,16.70
2017-12-25T12:53:48.167Z,15.30
2017-12-25T12:56:15.628Z,15.37
2017-12-25T12:58:43.109Z,16.40
2017-12-25T13:01:11.344Z,16.50
2017-12-25T13:03:38.812Z,15.37
2017-12-25T13:06:06.282Z,16.33
2017-12-25T13:08:33.752Z,15.60
2017-12-25T13:11:01.237Z,16.63
2017-12-25T13:13:29.483Z,16.30
2017-12-25T13:15:56.945Z,15.20
2017-12-25T13:18:24.434Z,15.93
2017-12-25T13:20:51.908Z,16.17
2017-12-25T13:23:20.170Z,16.00
2017-12-25T13:25:47.650Z,15.50
2017-12-25T13:28:15.917Z,15.43
2017-12-25T13:30:44.176Z,17.40
2017-12-25T13:33:11.647Z,16.67
2017-12-25T13:35:39.137Z,16.83
2017-12-25T13:38:07.402Z,17.70
2017-12-25T13:40:35.661Z,17.10
2017-12-25T13:43:03.141Z,16.87
2017-12-25T13:45:30.624Z,16.97
2017-12-25T13:47:58.862Z,17.80
2017-12-25T13:50:26.343Z,17.27
2017-12-25T13:52:53.827Z,17.87
2017-12-25T13:55:22.091Z,17.97
2017-12-25T13:57:49.551Z,17.13
2017-12-25T14:00:17.058Z,17.93
2017-12-25T14:02:44.523Z,17.33
2017-12-25T14:05:12.015Z,19.47
2017-12-25T14:07:39.482Z,18.47
2017-12-25T14:10:12.362Z,17.77
2017-12-25T14:12:39.838Z,18.70
2017-12-25T14:15:07.319Z,19.20
2017-12-25T14:17:34.804Z,19.27
2017-12-25T14:20:03.031Z,17.80
2017-12-25T14:22:30.513Z,24.90
2017-12-25T14:24:57.979Z,20.00
2017-12-25T14:27:25.453Z,19.00
2017-12-25T14:29:52.932Z,20.47
2017-12-25T14:32:21.225Z,19.13
2017-12-25T14:34:48.701Z,22.90
2017-12-25T14:37:16.176Z,24.27
2017-12-25T14:39:43.662Z,20.00
2017-12-25T14:42:11.129Z,19.70
2017-12-25T14:44:38.598Z,20.50
2017-12-25T14:47:06.063Z,20.80
2017-12-25T14:49:33.549Z,23.73
2017-12-25T14:52:01.788Z,23.50
2017-12-25T14:54:29.288Z,21.20
2017-12-25T14:56:57.509Z,21.30
2017-12-25T14:59:25.021Z,20.73
2017-12-25T15:01:52.509Z,20.73
2017-12-25T15:04:20.743Z,18.63
2017-12-25T15:06:48.231Z,19.57
2017-12-25T15:09:15.702Z,23.63
2017-12-25T15:11:43.943Z,23.30
2017-12-25T15:14:11.411Z,20.53
2017-12-25T15:16:38.888Z,20.17
2017-12-25T15:19:06.358Z,21.10
2017-12-25T15:21:34.605Z,24.60
2017-12-25T15:24:02.073Z,20.77
2017-12-25T15:26:29.614Z,20.17
2017-12-25T15:29:00.542Z,21.67
2017-12-25T15:31:28.015Z,22.53
2017-12-25T15:33:56.269Z,21.70
2017-12-25T15:36:24.518Z,21.10
2017-12-25T15:38:52.008Z,20.97
2017-12-25T15:41:20.243Z,19.93
2017-12-25T15:43:47.727Z,21.50
2017-12-25T15:46:15.201Z,21.87
2017-12-25T15:48:43.471Z,20.73
2017-12-25T15:51:10.938Z,21.13
2017-12-25T15:53:38.416Z,22.00
2017-12-25T15:56:06.655Z,22.00
2017-12-25T15:58:34.161Z,21.67
2017-12-25T16:01:02.406Z,24.37
2017-12-25T16:03:29.881Z,22.40
2017-12-25T16:05:57.366Z,23.93
2017-12-25T16:08:25.597Z,21.27
2017-12-25T16:10:53.079Z,22.40
2017-12-25T16:13:20.568Z,22.27
2017-12-25T16:15:48.853Z,22.40
2017-12-25T16:18:17.105Z,23.40
2017-12-25T16:20:44.578Z,22.93
2017-12-25T16:23:12.036Z,24.33
2017-12-25T16:25:39.523Z,25.73
2017-12-25T16:28:07.772Z,27.60
2017-12-25T16:30:35.249Z,27.03
2017-12-25T16:33:02.743Z,54.30
2017-12-25T16:35:30.213Z,32.07
2017-12-25T16:37:57.701Z,46.60
2017-12-25T16:40:25.202Z,50.37
2017-12-25T16:42:52.680Z,48.80
2017-12-25T16:45:21.697Z,47.17
2017-12-25T16:47:49.213Z,42.33
2017-12-25T16:50:16.690Z,42.33
2017-12-25T16:52:44.177Z,40.33
2017-12-25T16:55:11.669Z,40.17
2017-12-25T16:57:39.160Z,44.37
2017-12-25T17:00:06.632Z,40.77
2017-12-25T17:02:34.115Z,39.63
2017-12-25T17:05:02.356Z,37.67
2017-12-25T17:07:29.856Z,38.27
2017-12-25T17:09:58.099Z,39.80
2017-12-25T17:12:25.570Z,37.13
2017-12-25T17:14:53.058Z,36.77
2017-12-25T17:17:21.290Z,41.23
2017-12-25T17:19:48.773Z,39.30
2017-12-25T17:22:16.251Z,38.87
2017-12-25T17:24:43.746Z,39.07
2017-12-25T17:27:11.990Z,36.40
2017-12-25T17:29:39.477Z,36.57
2017-12-25T17:32:07.729Z,36.07
2017-12-25T17:34:35.270Z,34.70
2017-12-25T17:37:03.467Z,33.43
2017-12-25T17:39:30.935Z,36.80
2017-12-25T17:41:58.458Z,36.40
2017-12-25T17:44:25.936Z,34.83
2017-12-25T17:46:53.427Z,35.00
2017-12-25T17:49:20.911Z,34.53
2017-12-25T17:51:49.150Z,34.97
2017-12-25T17:54:16.634Z,40.23
2017-12-25T17:56:44.122Z,40.70
2017-12-25T17:59:12.370Z,37.83
2017-12-25T18:01:39.842Z,40.80
2017-12-25T18:04:08.134Z,42.47
2017-12-25T18:06:36.379Z,42.37
2017-12-25T18:09:03.851Z,43.47
2017-12-25T18:11:31.342Z,47.97
2017-12-25T18:13:59.582Z,49.93
2017-12-25T18:16:27.083Z,46.07
2017-12-25T18:18:54.559Z,43.20
2017-12-25T18:21:22.814Z,38.30
2017-12-25T18:23:50.279Z,36.40
2017-12-25T18:26:17.779Z,36.23
2017-12-25T18:28:45.249Z,36.47
2017-12-25T18:31:12.733Z,34.60
2017-12-25T18:33:40.216Z,32.63
2017-12-25T18:36:07.682Z,32.47
2017-12-25T18:38:35.156Z,29.40
2017-12-25T18:41:02.613Z,29.43
2017-12-25T18:43:30.089Z,31.37
2017-12-25T18:45:57.555Z,32.30
2017-12-25T18:48:25.788Z,27.63
2017-12-25T18:50:53.257Z,35.17
2017-12-25T18:53:20.761Z,32.23
2017-12-25T18:55:49.012Z,39.20
2017-12-25T18:58:16.481Z,40.20
2017-12-25T19:00:43.953Z,34.07
2017-12-25T19:03:11.425Z,30.97
2017-12-25T19:05:38.905Z,33.17
2017-12-25T19:08:07.139Z,32.57
2017-12-25T19:10:35.643Z,29.63
2017-12-25T19:13:03.092Z,30.50
2017-12-25T19:15:30.577Z,53.00
2017-12-25T19:17:58.049Z,47.20
2017-12-25T19:20:26.476Z,25.83
2017-12-25T19:22:53.961Z,28.90
2017-12-25T19:25:21.433Z,27.97
2017-12-25T19:27:48.905Z,25.50
2017-12-25T19:30:16.362Z,27.50
2017-12-25T19:32:43.847Z,25.90
2017-12-25T19:35:12.095Z,24.97
2017-12-25T19:37:39.627Z,27.77
2017-12-25T19:40:08.083Z,26.93
2017-12-25T19:42:36.342Z,26.90
2017-12-25T19:47:54.485Z,26.63
2017-12-25T19:50:22.008Z,27.33
2017-12-25T19:52:49.518Z,29.00
2017-12-25T19:55:17.062Z,26.47
2017-12-25T19:57:44.583Z,28.80
2017-12-25T20:00:12.938Z,28.23
2017-12-25T20:02:41.276Z,29.10
2017-12-25T20:05:08.723Z,28.90
2017-12-25T20:07:36.248Z,27.40
2017-12-25T20:10:04.493Z,25.97
2017-12-25T20:12:35.313Z,27.17
2017-12-25T20:15:02.832Z,29.17
2017-12-25T20:17:30.327Z,31.90
2017-12-25T20:19:57.859Z,29.80
2017-12-25T20:22:25.325Z,27.50
2017-12-25T20:24:52.845Z,26.63
2017-12-25T20:27:20.346Z,24.57
2017-12-25T20:29:47.806Z,24.83
2017-12-25T20:32:15.318Z,23.43
2017-12-25T20:34:42.825Z,23.37
2017-12-25T20:37:10.357Z,22.43
2017-12-25T20:39:37.875Z,21.93
2017-12-25T20:42:06.119Z,21.83
2017-12-25T20:44:33.645Z,21.50
2017-12-25T20:47:01.118Z,21.83
2017-12-25T20:49:28.590Z,21.17
2017-12-25T20:51:56.832Z,21.00
2017-12-25T20:54:25.132Z,21.53
2017-12-25T20:56:52.670Z,20.77
2017-12-25T20:59:20.932Z,20.73
2017-12-25T21:01:48.409Z,20.57
2017-12-25T21:04:16.640Z,22.37
2017-12-25T21:06:44.188Z,22.30
2017-12-25T21:09:11.714Z,20.30
2017-12-25T21:11:39.236Z,19.90
2017-12-25T21:14:06.754Z,19.50
2017-12-25T21:16:35.012Z,20.33
2017-12-25T21:19:02.548Z,20.47
2017-12-25T21:21:30.064Z,19.60
2017-12-25T21:23:58.365Z,20.10
2017-12-25T21:26:25.878Z,19.43
2017-12-25T21:28:53.406Z,19.77
2017-12-25T21:31:20.875Z,19.83
2017-12-25T21:33:48.409Z,21.20
2017-12-25T21:36:15.937Z,20.20
2017-12-25T21:38:43.475Z,20.73
2017-12-25T21:41:10.988Z,19.00
2017-12-25T21:43:39.287Z,19.23
2017-12-25T21:46:06.810Z,18.80
2017-12-25T21:48:34.291Z,19.10
2017-12-25T21:51:02.584Z,19.23
2017-12-25T21:53:30.879Z,19.40
2017-12-25T21:55:58.386Z,18.63
2017-12-25T21:58:25.949Z,19.77
2017-12-25T22:00:53.482Z,20.90
2017-12-25T22:03:20.946Z,20.20
2017-12-25T22:08:22.408Z,21.83
2017-12-25T22:10:49.916Z,19.50
2017-12-25T22:13:17.444Z,18.03
2017-12-25T22:15:44.958Z,18.93
2017-12-25T22:18:12.477Z,19.90
2017-12-25T22:20:39.996Z,19.67
2017-12-25T22:23:08.286Z,19.83
2017-12-25T22:25:36.550Z,19.40
2017-12-25T22:28:04.065Z,19.27
2017-12-25T22:30:31.560Z,19.13
2017-12-25T22:32:59.083Z,20.67
2017-12-25T22:35:26.593Z,19.97
2017-12-25T22:37:54.100Z,19.93
2017-12-25T22:40:21.619Z,18.60
2017-12-25T22:42:49.146Z,20.37
2017-12-25T22:45:16.675Z,20.93
2017-12-25T22:47:44.919Z,19.90
2017-12-25T22:50:12.452Z,18.77
2017-12-25T22:52:39.955Z,19.37
2017-12-25T22:55:07.497Z,19.73
2017-12-25T22:57:35.032Z,20.10
2017-12-25T23:00:02.507Z,19.53
2017-12-25T23:02:30.038Z,18.53
2017-12-25T23:04:57.560Z,18.93
2017-12-25T23:07:25.080Z,18.27
2017-12-25T23:09:53.323Z,19.97
2017-12-25T23:12:20.870Z,19.47
2017-12-25T23:14:48.383Z,18.30
2017-12-25T23:17:15.891Z,18.67
2017-12-25T23:19:43.378Z,18.37
2017-12-25T23:22:10.882Z,17.80
2017-12-25T23:24:39.208Z,19.20
2017-12-25T23:27:06.725Z,17.57
2017-12-25T23:29:34.235Z,18.67
2017-12-25T23:32:01.747Z,17.20
2017-12-25T23:34:30.038Z,16.87
2017-12-25T23:36:58.318Z,18.03
2017-12-25T23:39:25.827Z,17.83
2017-12-25T23:41:53.358Z,17.20
2017-12-25T23:44:21.610Z,17.90
2017-12-25T23:46:49.119Z,18.00
2017-12-25T23:49:16.591Z,16.80
2017-12-25T23:51:44.068Z,17.83
2017-12-25T23:54:23.319Z,18.07
2017-12-25T23:56:50.851Z,16.90
2017-12-25T23:59:18.390Z,17.57
